sensor_id;sensor_type;location;lat;lon;timestamp;temperature;humidity
66594;DHT22;53450;42.584;23.366;2023-05-27T00:02:10;12.76;86.22
66594;DHT22;53450;42.584;23.366;2023-05-27T00:04:36;12.40;87.21
66594;DHT22;53450;42.584;23.366;2023-05-27T00:07:02;12.07;87.96
66594;DHT22;53450;42.584;23.366;2023-05-27T00:09:28;11.97;88.44
66594;DHT22;53450;42.584;23.366;2023-05-27T00:11:53;11.89;88.59
66594;DHT22;53450;42.584;23.366;2023-05-27T00:14:19;11.93;88.83
66594;DHT22;53450;42.584;23.366;2023-05-27T00:16:45;11.91;88.75
66594;DHT22;53450;42.584;23.366;2023-05-27T00:19:36;12.04;88.73
66594;DHT22;53450;42.584;23.366;2023-05-27T00:22:27;12.14;88.50
66594;DHT22;53450;42.584;23.366;2023-05-27T00:25:19;12.20;87.98
66594;DHT22;53450;42.584;23.366;2023-05-27T00:28:10;12.16;88.23
66594;DHT22;53450;42.584;23.366;2023-05-27T00:30:36;12.13;88.21
66594;DHT22;53450;42.584;23.366;2023-05-27T00:33:02;12.07;88.32
66594;DHT22;53450;42.584;23.366;2023-05-27T00:35:28;12.11;88.45
66594;DHT22;53450;42.584;23.366;2023-05-27T00:37:54;12.05;88.42
66594;DHT22;53450;42.584;23.366;2023-05-27T00:40:21;12.08;88.43
66594;DHT22;53450;42.584;23.366;2023-05-27T00:42:48;12.05;88.20
66594;DHT22;53450;42.584;23.366;2023-05-27T00:45:14;12.11;87.98
66594;DHT22;53450;42.584;23.366;2023-05-27T00:47:39;12.13;87.98
66594;DHT22;53450;42.584;23.366;2023-05-27T00:50:05;12.16;87.60
66594;DHT22;53450;42.584;23.366;2023-05-27T00:52:33;12.20;87.56
66594;DHT22;53450;42.584;23.366;2023-05-27T00:54:59;12.25;87.55
66594;DHT22;53450;42.584;23.366;2023-05-27T00:57:25;12.25;87.15
66594;DHT22;53450;42.584;23.366;2023-05-27T00:59:51;12.28;87.00
66594;DHT22;53450;42.584;23.366;2023-05-27T01:02:17;12.30;87.02
66594;DHT22;53450;42.584;23.366;2023-05-27T01:04:42;12.35;86.70
66594;DHT22;53450;42.584;23.366;2023-05-27T01:07:23;12.34;86.08
66594;DHT22;53450;42.584;23.366;2023-05-27T01:09:59;12.37;86.33
66594;DHT22;53450;42.584;23.366;2023-05-27T01:12:37;12.38;85.82
66594;DHT22;53450;42.584;23.366;2023-05-27T01:15:07;12.38;86.06
66594;DHT22;53450;42.584;23.366;2023-05-27T01:17:35;12.38;85.58
66594;DHT22;53450;42.584;23.366;2023-05-27T01:20:03;12.38;85.10
66594;DHT22;53450;42.584;23.366;2023-05-27T01:22:34;12.38;85.30
66594;DHT22;53450;42.584;23.366;2023-05-27T01:25:01;12.38;85.89
66594;DHT22;53450;42.584;23.366;2023-05-27T01:27:28;12.38;86.32
66594;DHT22;53450;42.584;23.366;2023-05-27T01:29:54;12.34;85.99
66594;DHT22;53450;42.584;23.366;2023-05-27T01:32:29;12.37;85.93
66594;DHT22;53450;42.584;23.366;2023-05-27T01:37:56;12.34;85.79
66594;DHT22;53450;42.584;23.366;2023-05-27T01:40:48;12.28;85.66
66594;DHT22;53450;42.584;23.366;2023-05-27T01:43:40;12.25;86.19
66594;DHT22;53450;42.584;23.366;2023-05-27T01:46:32;12.17;86.06
66594;DHT22;53450;42.584;23.366;2023-05-27T01:48:58;12.20;85.99
66594;DHT22;53450;42.584;23.366;2023-05-27T01:51:23;12.14;85.84
66594;DHT22;53450;42.584;23.366;2023-05-27T01:53:49;12.13;85.89
66594;DHT22;53450;42.584;23.366;2023-05-27T01:56:14;12.08;86.18
66594;DHT22;53450;42.584;23.366;2023-05-27T01:58:43;12.08;86.02
66594;DHT22;53450;42.584;23.366;2023-05-27T02:01:09;12.05;85.98
66594;DHT22;53450;42.584;23.366;2023-05-27T02:03:35;12.03;86.12
66594;DHT22;53450;42.584;23.366;2023-05-27T02:06:00;12.01;86.01
66594;DHT22;53450;42.584;23.366;2023-05-27T02:08:26;12.01;86.10
66594;DHT22;53450;42.584;23.366;2023-05-27T02:10:53;12.00;85.93
66594;DHT22;53450;42.584;23.366;2023-05-27T02:13:18;12.00;86.14
66594;DHT22;53450;42.584;23.366;2023-05-27T02:15:44;12.03;85.84
66594;DHT22;53450;42.584;23.366;2023-05-27T02:18:10;12.04;86.26
66594;DHT22;53450;42.584;23.366;2023-05-27T02:20:38;12.00;86.33
66594;DHT22;53450;42.584;23.366;2023-05-27T02:23:06;11.97;86.51
66594;DHT22;53450;42.584;23.366;2023-05-27T02:25:32;11.95;86.73
66594;DHT22;53450;42.584;23.366;2023-05-27T02:27:58;11.93;86.39
66594;DHT22;53450;42.584;23.366;2023-05-27T02:30:31;11.90;86.42
66594;DHT22;53450;42.584;23.366;2023-05-27T02:32:57;11.89;86.42
66594;DHT22;53450;42.584;23.366;2023-05-27T02:35:23;11.93;86.53
66594;DHT22;53450;42.584;23.366;2023-05-27T02:37:49;11.90;86.47
66594;DHT22;53450;42.584;23.366;2023-05-27T02:40:28;11.98;86.44
66594;DHT22;53450;42.584;23.366;2023-05-27T02:42:58;11.98;86.59
66594;DHT22;53450;42.584;23.366;2023-05-27T02:45:24;11.98;86.33
66594;DHT22;53450;42.584;23.366;2023-05-27T02:47:50;12.00;86.38
66594;DHT22;53450;42.584;23.366;2023-05-27T02:50:16;12.05;86.37
66594;DHT22;53450;42.584;23.366;2023-05-27T02:52:42;12.08;86.13
66594;DHT22;53450;42.584;23.366;2023-05-27T02:55:08;12.13;86.30
66594;DHT22;53450;42.584;23.366;2023-05-27T02:57:33;12.14;86.27
66594;DHT22;53450;42.584;23.366;2023-05-27T02:59:59;12.17;86.18
66594;DHT22;53450;42.584;23.366;2023-05-27T03:02:25;12.24;86.26
66594;DHT22;53450;42.584;23.366;2023-05-27T03:04:50;12.21;86.06
66594;DHT22;53450;42.584;23.366;2023-05-27T03:07:16;12.22;86.19
66594;DHT22;53450;42.584;23.366;2023-05-27T03:09:41;12.18;85.87
66594;DHT22;53450;42.584;23.366;2023-05-27T03:12:07;12.08;86.08
66594;DHT22;53450;42.584;23.366;2023-05-27T03:14:32;12.18;85.93
66594;DHT22;53450;42.584;23.366;2023-05-27T03:16:58;12.40;85.68
66594;DHT22;53450;42.584;23.366;2023-05-27T03:19:24;12.49;85.07
66594;DHT22;53450;42.584;23.366;2023-05-27T03:21:50;12.49;85.41
66594;DHT22;53450;42.584;23.366;2023-05-27T03:24:16;12.48;85.70
66594;DHT22;53450;42.584;23.366;2023-05-27T03:26:42;12.40;86.27
66594;DHT22;53450;42.584;23.366;2023-05-27T03:29:08;12.28;86.79
66594;DHT22;53450;42.584;23.366;2023-05-27T03:31:34;12.35;86.93
66594;DHT22;53450;42.584;23.366;2023-05-27T03:34:05;12.38;86.88
66594;DHT22;53450;42.584;23.366;2023-05-27T03:36:31;12.53;86.63
66594;DHT22;53450;42.584;23.366;2023-05-27T03:38:56;12.65;85.93
66594;DHT22;53450;42.584;23.366;2023-05-27T03:41:24;12.63;86.02
66594;DHT22;53450;42.584;23.366;2023-05-27T03:43:49;12.62;86.44
66594;DHT22;53450;42.584;23.366;2023-05-27T03:46:16;12.59;86.53
66594;DHT22;53450;42.584;23.366;2023-05-27T03:48:42;12.59;86.66
66594;DHT22;53450;42.584;23.366;2023-05-27T03:51:07;12.59;86.81
66594;DHT22;53450;42.584;23.366;2023-05-27T03:53:33;12.52;87.09
66594;DHT22;53450;42.584;23.366;2023-05-27T03:55:59;12.40;87.66
66594;DHT22;53450;42.584;23.366;2023-05-27T03:58:24;12.25;87.68
66594;DHT22;53450;42.584;23.366;2023-05-27T04:00:50;12.30;87.54
66594;DHT22;53450;42.584;23.366;2023-05-27T04:03:17;12.08;87.62
66594;DHT22;53450;42.584;23.366;2023-05-27T04:05:42;11.94;87.40
66594;DHT22;53450;42.584;23.366;2023-05-27T04:08:08;12.20;87.16
66594;DHT22;53450;42.584;23.366;2023-05-27T04:10:34;12.32;86.53
66594;DHT22;53450;42.584;23.366;2023-05-27T04:12:59;12.42;86.59
66594;DHT22;53450;42.584;23.366;2023-05-27T04:15:25;12.46;86.59
66594;DHT22;53450;42.584;23.366;2023-05-27T04:17:51;12.41;86.94
66594;DHT22;53450;42.584;23.366;2023-05-27T04:20:17;12.55;86.74
66594;DHT22;53450;42.584;23.366;2023-05-27T04:22:46;12.65;86.48
66594;DHT22;53450;42.584;23.366;2023-05-27T04:25:11;12.66;86.35
66594;DHT22;53450;42.584;23.366;2023-05-27T04:27:56;12.80;85.99
66594;DHT22;53450;42.584;23.366;2023-05-27T04:30:47;12.88;85.81
66594;DHT22;53450;42.584;23.366;2023-05-27T04:33:41;13.02;85.88
66594;DHT22;53450;42.584;23.366;2023-05-27T04:36:08;13.07;85.75
66594;DHT22;53450;42.584;23.366;2023-05-27T04:38:47;12.99;85.72
66594;DHT22;53450;42.584;23.366;2023-05-27T04:41:38;13.09;85.70
66594;DHT22;53450;42.584;23.366;2023-05-27T04:44:13;13.03;85.92
66594;DHT22;53450;42.584;23.366;2023-05-27T04:46:43;12.97;86.50
66594;DHT22;53450;42.584;23.366;2023-05-27T04:49:09;13.20;86.61
66594;DHT22;53450;42.584;23.366;2023-05-27T04:51:35;13.04;86.13
66594;DHT22;53450;42.584;23.366;2023-05-27T04:54:01;13.07;87.07
66594;DHT22;53450;42.584;23.366;2023-05-27T04:56:28;13.16;86.99
66594;DHT22;53450;42.584;23.366;2023-05-27T04:58:54;13.33;86.49
66594;DHT22;53450;42.584;23.366;2023-05-27T05:01:24;13.57;85.95
66594;DHT22;53450;42.584;23.366;2023-05-27T05:03:59;13.62;85.96
66594;DHT22;53450;42.584;23.366;2023-05-27T05:06:45;13.68;86.15
66594;DHT22;53450;42.584;23.366;2023-05-27T05:09:11;13.54;86.31
66594;DHT22;53450;42.584;23.366;2023-05-27T05:11:38;13.57;86.44
66594;DHT22;53450;42.584;23.366;2023-05-27T05:14:03;13.83;86.02
66594;DHT22;53450;42.584;23.366;2023-05-27T05:16:30;13.81;86.40
66594;DHT22;53450;42.584;23.366;2023-05-27T05:18:55;13.72;86.27
66594;DHT22;53450;42.584;23.366;2023-05-27T05:21:22;13.65;86.66
66594;DHT22;53450;42.584;23.366;2023-05-27T05:23:48;13.88;86.09
66594;DHT22;53450;42.584;23.366;2023-05-27T05:26:14;14.02;85.38
66594;DHT22;53450;42.584;23.366;2023-05-27T05:28:42;14.06;84.63
66594;DHT22;53450;42.584;23.366;2023-05-27T05:31:10;14.01;84.87
66594;DHT22;53450;42.584;23.366;2023-05-27T05:33:35;14.13;85.07
66594;DHT22;53450;42.584;23.366;2023-05-27T05:36:01;14.23;84.31
66594;DHT22;53450;42.584;23.366;2023-05-27T05:38:50;14.26;83.99
66594;DHT22;53450;42.584;23.366;2023-05-27T05:41:18;14.22;84.11
66594;DHT22;53450;42.584;23.366;2023-05-27T05:43:44;14.12;84.61
66594;DHT22;53450;42.584;23.366;2023-05-27T05:46:09;14.16;84.97
66594;DHT22;53450;42.584;23.366;2023-05-27T05:48:36;14.16;85.38
66594;DHT22;53450;42.584;23.366;2023-05-27T05:51:02;14.20;86.27
66594;DHT22;53450;42.584;23.366;2023-05-27T05:53:27;14.13;86.25
66594;DHT22;53450;42.584;23.366;2023-05-27T05:55:54;14.10;86.75
66594;DHT22;53450;42.584;23.366;2023-05-27T05:58:21;14.02;85.96
66594;DHT22;53450;42.584;23.366;2023-05-27T06:00:48;14.23;85.22
66594;DHT22;53450;42.584;23.366;2023-05-27T06:03:28;14.34;84.88
66594;DHT22;53450;42.584;23.366;2023-05-27T06:06:01;14.32;85.18
66594;DHT22;53450;42.584;23.366;2023-05-27T06:08:28;14.13;86.65
66594;DHT22;53450;42.584;23.366;2023-05-27T06:11:12;14.29;85.40
66594;DHT22;53450;42.584;23.366;2023-05-27T06:13:41;14.36;85.25
66594;DHT22;53450;42.584;23.366;2023-05-27T06:16:08;14.36;84.40
66594;DHT22;53450;42.584;23.366;2023-05-27T06:18:35;14.32;85.18
66594;DHT22;53450;42.584;23.366;2023-05-27T06:21:00;14.39;85.05
66594;DHT22;53450;42.584;23.366;2023-05-27T06:23:30;14.43;84.42
66594;DHT22;53450;42.584;23.366;2023-05-27T06:26:14;14.56;84.17
66594;DHT22;53450;42.584;23.366;2023-05-27T06:28:45;14.70;84.13
66594;DHT22;53450;42.584;23.366;2023-05-27T06:31:13;14.59;84.39
66594;DHT22;53450;42.584;23.366;2023-05-27T06:33:41;14.50;84.70
66594;DHT22;53450;42.584;23.366;2023-05-27T06:36:07;14.53;84.72
66594;DHT22;53450;42.584;23.366;2023-05-27T06:38:33;14.50;84.64
66594;DHT22;53450;42.584;23.366;2023-05-27T06:40:59;14.25;84.91
66594;DHT22;53450;42.584;23.366;2023-05-27T06:43:25;14.39;85.60
66594;DHT22;53450;42.584;23.366;2023-05-27T06:45:58;14.50;84.75
66594;DHT22;53450;42.584;23.366;2023-05-27T06:48:47;14.64;84.74
66594;DHT22;53450;42.584;23.366;2023-05-27T06:51:14;14.57;84.78
66594;DHT22;53450;42.584;23.366;2023-05-27T06:53:40;14.61;84.92
66594;DHT22;53450;42.584;23.366;2023-05-27T06:56:11;14.73;84.57
66594;DHT22;53450;42.584;23.366;2023-05-27T06:59:03;14.80;84.50
66594;DHT22;53450;42.584;23.366;2023-05-27T07:01:29;14.70;84.99
66594;DHT22;53450;42.584;23.366;2023-05-27T07:03:59;14.48;85.62
66594;DHT22;53450;42.584;23.366;2023-05-27T07:06:37;14.50;85.81
66594;DHT22;53450;42.584;23.366;2023-05-27T07:09:03;14.63;85.21
66594;DHT22;53450;42.584;23.366;2023-05-27T07:11:32;14.43;85.15
66594;DHT22;53450;42.584;23.366;2023-05-27T07:14:02;14.36;85.53
66594;DHT22;53450;42.584;23.366;2023-05-27T07:16:31;14.47;85.53
66594;DHT22;53450;42.584;23.366;2023-05-27T07:18:57;14.68;85.70
66594;DHT22;53450;42.584;23.366;2023-05-27T07:21:25;14.94;85.25
66594;DHT22;53450;42.584;23.366;2023-05-27T07:23:51;15.06;84.67
66594;DHT22;53450;42.584;23.366;2023-05-27T07:26:24;15.31;83.65
66594;DHT22;53450;42.584;23.366;2023-05-27T07:29:17;15.50;83.05
66594;DHT22;53450;42.584;23.366;2023-05-27T07:32:08;15.26;83.86
66594;DHT22;53450;42.584;23.366;2023-05-27T07:34:35;15.42;82.94
66594;DHT22;53450;42.584;23.366;2023-05-27T07:37:01;15.53;79.56
66594;DHT22;53450;42.584;23.366;2023-05-27T07:39:27;15.63;78.80
66594;DHT22;53450;42.584;23.366;2023-05-27T07:41:53;15.66;77.36
66594;DHT22;53450;42.584;23.366;2023-05-27T07:44:19;15.73;76.58
66594;DHT22;53450;42.584;23.366;2023-05-27T07:46:45;15.83;76.39
66594;DHT22;53450;42.584;23.366;2023-05-27T07:49:36;15.89;76.14
66594;DHT22;53450;42.584;23.366;2023-05-27T07:52:27;15.87;75.39
66594;DHT22;53450;42.584;23.366;2023-05-27T07:54:52;15.94;75.08
66594;DHT22;53450;42.584;23.366;2023-05-27T07:57:20;16.11;75.87
66594;DHT22;53450;42.584;23.366;2023-05-27T07:59:46;16.25;76.50
66594;DHT22;53450;42.584;23.366;2023-05-27T08:02:12;16.26;75.53
66594;DHT22;53450;42.584;23.366;2023-05-27T08:04:41;16.31;73.25
66594;DHT22;53450;42.584;23.366;2023-05-27T08:07:37;16.22;73.02
66594;DHT22;53450;42.584;23.366;2023-05-27T08:10:29;16.22;73.32
66594;DHT22;53450;42.584;23.366;2023-05-27T08:13:14;16.31;72.96
66594;DHT22;53450;42.584;23.366;2023-05-27T08:16:00;16.29;73.55
66594;DHT22;53450;42.584;23.366;2023-05-27T08:18:52;16.29;74.57
66594;DHT22;53450;42.584;23.366;2023-05-27T08:21:25;16.31;74.09
66594;DHT22;53450;42.584;23.366;2023-05-27T08:24:29;16.25;73.87
66594;DHT22;53450;42.584;23.366;2023-05-27T08:27:14;16.20;74.49
66594;DHT22;53450;42.584;23.366;2023-05-27T08:29:55;16.24;74.95
66594;DHT22;53450;42.584;23.366;2023-05-27T08:32:46;16.14;75.79
66594;DHT22;53450;42.584;23.366;2023-05-27T08:35:36;16.07;76.32
66594;DHT22;53450;42.584;23.366;2023-05-27T08:38:27;16.20;76.01
66594;DHT22;53450;42.584;23.366;2023-05-27T08:41:01;16.08;74.21
66594;DHT22;53450;42.584;23.366;2023-05-27T08:43:27;16.01;74.05
66594;DHT22;53450;42.584;23.366;2023-05-27T08:45:53;15.98;75.31
66594;DHT22;53450;42.584;23.366;2023-05-27T08:48:19;16.20;75.52
66594;DHT22;53450;42.584;23.366;2023-05-27T08:50:46;16.42;74.86
66594;DHT22;53450;42.584;23.366;2023-05-27T08:53:13;16.61;74.16
66594;DHT22;53450;42.584;23.366;2023-05-27T08:55:41;16.61;73.11
66594;DHT22;53450;42.584;23.366;2023-05-27T08:58:09;16.76;72.55
66594;DHT22;53450;42.584;23.366;2023-05-27T09:00:40;16.94;71.41
66594;DHT22;53450;42.584;23.366;2023-05-27T09:03:26;17.03;72.45
66594;DHT22;53450;42.584;23.366;2023-05-27T09:05:55;17.10;71.06
66594;DHT22;53450;42.584;23.366;2023-05-27T09:08:20;17.24;71.20
66594;DHT22;53450;42.584;23.366;2023-05-27T09:11:25;17.17;71.63
66594;DHT22;53450;42.584;23.366;2023-05-27T09:14:21;17.26;73.21
66594;DHT22;53450;42.584;23.366;2023-05-27T09:16:46;17.47;71.18
66594;DHT22;53450;42.584;23.366;2023-05-27T09:19:19;17.68;68.86
66594;DHT22;53450;42.584;23.366;2023-05-27T09:21:44;17.68;67.69
66594;DHT22;53450;42.584;23.366;2023-05-27T09:24:11;17.54;68.54
66594;DHT22;53450;42.584;23.366;2023-05-27T09:27:02;17.78;68.98
66594;DHT22;53450;42.584;23.366;2023-05-27T09:29:31;18.08;68.00
66594;DHT22;53450;42.584;23.366;2023-05-27T09:32:00;18.08;67.38
66594;DHT22;53450;42.584;23.366;2023-05-27T09:34:26;18.12;66.38
66594;DHT22;53450;42.584;23.366;2023-05-27T09:36:54;18.30;66.15
66594;DHT22;53450;42.584;23.366;2023-05-27T09:39:22;18.25;65.26
66594;DHT22;53450;42.584;23.366;2023-05-27T09:41:53;18.51;63.39
66594;DHT22;53450;42.584;23.366;2023-05-27T09:44:19;18.54;64.62
66594;DHT22;53450;42.584;23.366;2023-05-27T09:46:45;18.61;63.35
66594;DHT22;53450;42.584;23.366;2023-05-27T09:49:14;18.79;63.68
66594;DHT22;53450;42.584;23.366;2023-05-27T09:51:40;18.83;67.05
66594;DHT22;53450;42.584;23.366;2023-05-27T09:54:07;18.89;61.94
66594;DHT22;53450;42.584;23.366;2023-05-27T09:56:34;18.72;61.13
66594;DHT22;53450;42.584;23.366;2023-05-27T09:59:06;18.53;62.10
66594;DHT22;53450;42.584;23.366;2023-05-27T10:01:32;18.68;63.83
66594;DHT22;53450;42.584;23.366;2023-05-27T10:03:58;18.71;63.53
66594;DHT22;53450;42.584;23.366;2023-05-27T10:06:25;18.68;63.78
66594;DHT22;53450;42.584;23.366;2023-05-27T10:09:20;18.64;63.70
66594;DHT22;53450;42.584;23.366;2023-05-27T10:12:11;18.88;63.56
66594;DHT22;53450;42.584;23.366;2023-05-27T10:14:38;18.89;65.16
66594;DHT22;53450;42.584;23.366;2023-05-27T10:17:03;18.83;65.02
66594;DHT22;53450;42.584;23.366;2023-05-27T10:19:29;18.47;64.17
66594;DHT22;53450;42.584;23.366;2023-05-27T10:21:55;18.44;65.12
66594;DHT22;53450;42.584;23.366;2023-05-27T10:24:31;18.51;64.03
66594;DHT22;53450;42.584;23.366;2023-05-27T10:27:00;18.03;66.78
66594;DHT22;53450;42.584;23.366;2023-05-27T10:29:57;18.09;66.88
66594;DHT22;53450;42.584;23.366;2023-05-27T10:32:49;18.23;66.25
66594;DHT22;53450;42.584;23.366;2023-05-27T10:35:16;18.14;66.27
66594;DHT22;53450;42.584;23.366;2023-05-27T10:37:42;18.33;67.09
66594;DHT22;53450;42.584;23.366;2023-05-27T10:40:34;18.60;66.46
66594;DHT22;53450;42.584;23.366;2023-05-27T10:43:27;18.51;67.43
66594;DHT22;53450;42.584;23.366;2023-05-27T10:46:07;18.20;67.75
66594;DHT22;53450;42.584;23.366;2023-05-27T10:48:34;18.29;67.36
66594;DHT22;53450;42.584;23.366;2023-05-27T10:51:00;18.46;65.73
66594;DHT22;53450;42.584;23.366;2023-05-27T10:53:26;18.56;66.12
66594;DHT22;53450;42.584;23.366;2023-05-27T10:55:52;18.83;66.44
66594;DHT22;53450;42.584;23.366;2023-05-27T10:58:19;18.89;65.35
66594;DHT22;53450;42.584;23.366;2023-05-27T11:00:48;18.57;66.59
66594;DHT22;53450;42.584;23.366;2023-05-27T11:03:44;18.58;69.11
66594;DHT22;53450;42.584;23.366;2023-05-27T11:06:11;18.77;66.17
66594;DHT22;53450;42.584;23.366;2023-05-27T11:08:36;18.68;65.66
66594;DHT22;53450;42.584;23.366;2023-05-27T11:11:07;18.75;67.92
66594;DHT22;53450;42.584;23.366;2023-05-27T11:13:35;18.81;65.09
66594;DHT22;53450;42.584;23.366;2023-05-27T11:16:03;19.18;64.31
66594;DHT22;53450;42.584;23.366;2023-05-27T11:18:43;19.02;64.10
66594;DHT22;53450;42.584;23.366;2023-05-27T11:21:11;19.26;62.46
66594;DHT22;53450;42.584;23.366;2023-05-27T11:23:38;19.40;60.84
66594;DHT22;53450;42.584;23.366;2023-05-27T11:26:19;18.61;64.02
66594;DHT22;53450;42.584;23.366;2023-05-27T11:28:50;18.95;62.11
66594;DHT22;53450;42.584;23.366;2023-05-27T11:31:17;19.62;63.22
66594;DHT22;53450;42.584;23.366;2023-05-27T11:33:44;19.16;62.86
66594;DHT22;53450;42.584;23.366;2023-05-27T11:36:14;19.26;61.47
66594;DHT22;53450;42.584;23.366;2023-05-27T11:39:00;19.39;61.59
66594;DHT22;53450;42.584;23.366;2023-05-27T11:41:27;19.69;61.65
66594;DHT22;53450;42.584;23.366;2023-05-27T11:44:06;19.30;61.40
66594;DHT22;53450;42.584;23.366;2023-05-27T11:46:43;19.63;62.21
66594;DHT22;53450;42.584;23.366;2023-05-27T11:49:11;19.87;62.11
66594;DHT22;53450;42.584;23.366;2023-05-27T11:51:38;20.26;60.84
66594;DHT22;53450;42.584;23.366;2023-05-27T11:54:05;20.32;59.26
66594;DHT22;53450;42.584;23.366;2023-05-27T11:56:31;19.90;58.08
66594;DHT22;53450;42.584;23.366;2023-05-27T11:58:57;19.86;58.78
66594;DHT22;53450;42.584;23.366;2023-05-27T12:01:24;20.10;58.79
66594;DHT22;53450;42.584;23.366;2023-05-27T12:03:50;20.59;60.16
66594;DHT22;53450;42.584;23.366;2023-05-27T12:06:16;20.05;60.66
66594;DHT22;53450;42.584;23.366;2023-05-27T12:08:42;19.67;59.53
66594;DHT22;53450;42.584;23.366;2023-05-27T12:11:08;20.10;60.08
66594;DHT22;53450;42.584;23.366;2023-05-27T12:13:34;19.93;56.77
66594;DHT22;53450;42.584;23.366;2023-05-27T12:16:00;19.81;57.44
66594;DHT22;53450;42.584;23.366;2023-05-27T12:18:25;19.80;57.59
66594;DHT22;53450;42.584;23.366;2023-05-27T12:20:51;19.78;58.05
66594;DHT22;53450;42.584;23.366;2023-05-27T12:23:17;19.78;58.57
66594;DHT22;53450;42.584;23.366;2023-05-27T12:25:43;19.86;59.78
66594;DHT22;53450;42.584;23.366;2023-05-27T12:28:09;19.87;58.36
66594;DHT22;53450;42.584;23.366;2023-05-27T12:30:36;20.01;59.48
66594;DHT22;53450;42.584;23.366;2023-05-27T12:33:03;20.00;58.46
66594;DHT22;53450;42.584;23.366;2023-05-27T12:35:29;19.87;56.90
66594;DHT22;53450;42.584;23.366;2023-05-27T12:37:55;19.59;61.14
66594;DHT22;53450;42.584;23.366;2023-05-27T12:40:21;19.62;59.53
66594;DHT22;53450;42.584;23.366;2023-05-27T12:42:48;19.76;59.27
66594;DHT22;53450;42.584;23.366;2023-05-27T12:45:13;19.81;56.86
66594;DHT22;53450;42.584;23.366;2023-05-27T12:47:39;19.97;57.29
66594;DHT22;53450;42.584;23.366;2023-05-27T12:50:06;19.87;55.82
66594;DHT22;53450;42.584;23.366;2023-05-27T12:52:32;19.88;55.89
66594;DHT22;53450;42.584;23.366;2023-05-27T12:54:58;19.45;56.80
66594;DHT22;53450;42.584;23.366;2023-05-27T12:57:24;19.50;58.57
66594;DHT22;53450;42.584;23.366;2023-05-27T12:59:49;19.97;54.83
66594;DHT22;53450;42.584;23.366;2023-05-27T13:02:15;20.10;57.58
66594;DHT22;53450;42.584;23.366;2023-05-27T13:04:41;19.83;57.11
66594;DHT22;53450;42.584;23.366;2023-05-27T13:07:10;19.81;57.75
66594;DHT22;53450;42.584;23.366;2023-05-27T13:09:37;19.71;58.88
66594;DHT22;53450;42.584;23.366;2023-05-27T13:12:03;19.56;58.45
66594;DHT22;53450;42.584;23.366;2023-05-27T13:14:29;19.80;57.56
66594;DHT22;53450;42.584;23.366;2023-05-27T13:16:55;20.25;57.84
66594;DHT22;53450;42.584;23.366;2023-05-27T13:19:21;20.21;57.45
66594;DHT22;53450;42.584;23.366;2023-05-27T13:21:47;20.03;57.56
66594;DHT22;53450;42.584;23.366;2023-05-27T13:24:13;20.07;57.57
66594;DHT22;53450;42.584;23.366;2023-05-27T13:26:39;20.45;56.92
66594;DHT22;53450;42.584;23.366;2023-05-27T13:29:05;20.65;57.29
66594;DHT22;53450;42.584;23.366;2023-05-27T13:31:30;20.05;55.93
66594;DHT22;53450;42.584;23.366;2023-05-27T13:33:56;20.26;58.45
66594;DHT22;53450;42.584;23.366;2023-05-27T13:36:22;20.26;57.01
66594;DHT22;53450;42.584;23.366;2023-05-27T13:38:47;20.26;56.39
66594;DHT22;53450;42.584;23.366;2023-05-27T13:41:14;20.41;57.36
66594;DHT22;53450;42.584;23.366;2023-05-27T13:43:40;20.45;56.34
66594;DHT22;53450;42.584;23.366;2023-05-27T13:46:05;20.20;57.32
66594;DHT22;53450;42.584;23.366;2023-05-27T13:48:31;19.73;57.20
66594;DHT22;53450;42.584;23.366;2023-05-27T13:50:57;19.94;57.54
66594;DHT22;53450;42.584;23.366;2023-05-27T13:53:24;19.90;57.48
66594;DHT22;53450;42.584;23.366;2023-05-27T13:55:50;19.74;55.63
66594;DHT22;53450;42.584;23.366;2023-05-27T13:58:26;20.17;55.76
66594;DHT22;53450;42.584;23.366;2023-05-27T14:00:54;20.25;54.55
66594;DHT22;53450;42.584;23.366;2023-05-27T14:03:20;20.52;55.79
66594;DHT22;53450;42.584;23.366;2023-05-27T14:05:46;20.56;54.29
66594;DHT22;53450;42.584;23.366;2023-05-27T14:08:12;20.62;55.10
66594;DHT22;53450;42.584;23.366;2023-05-27T14:10:38;20.75;54.54
66594;DHT22;53450;42.584;23.366;2023-05-27T14:13:04;20.72;52.37
66594;DHT22;53450;42.584;23.366;2023-05-27T14:15:30;20.93;53.15
66594;DHT22;53450;42.584;23.366;2023-05-27T14:17:57;21.04;54.90
66594;DHT22;53450;42.584;23.366;2023-05-27T14:20:22;21.15;55.31
66594;DHT22;53450;42.584;23.366;2023-05-27T14:22:48;21.11;54.87
66594;DHT22;53450;42.584;23.366;2023-05-27T14:25:14;21.41;55.46
66594;DHT22;53450;42.584;23.366;2023-05-27T14:27:40;21.41;54.55
66594;DHT22;53450;42.584;23.366;2023-05-27T14:30:07;21.30;52.90
66594;DHT22;53450;42.584;23.366;2023-05-27T14:32:32;20.93;54.66
66594;DHT22;53450;42.584;23.366;2023-05-27T14:34:58;20.80;54.36
66594;DHT22;53450;42.584;23.366;2023-05-27T14:37:24;20.80;53.65
66594;DHT22;53450;42.584;23.366;2023-05-27T14:39:53;20.69;53.92
66594;DHT22;53450;42.584;23.366;2023-05-27T14:42:19;20.41;55.29
66594;DHT22;53450;42.584;23.366;2023-05-27T14:44:45;20.51;56.44
66594;DHT22;53450;42.584;23.366;2023-05-27T14:47:11;20.38;55.61
66594;DHT22;53450;42.584;23.366;2023-05-27T14:49:37;20.36;55.40
66594;DHT22;53450;42.584;23.366;2023-05-27T14:52:03;20.59;55.73
66594;DHT22;53450;42.584;23.366;2023-05-27T14:54:29;20.61;54.75
66594;DHT22;53450;42.584;23.366;2023-05-27T14:56:55;20.69;52.87
66594;DHT22;53450;42.584;23.366;2023-05-27T14:59:20;20.79;53.58
66594;DHT22;53450;42.584;23.366;2023-05-27T15:01:50;20.79;53.52
66594;DHT22;53450;42.584;23.366;2023-05-27T15:04:16;20.86;53.74
66594;DHT22;53450;42.584;23.366;2023-05-27T15:06:42;21.06;53.85
66594;DHT22;53450;42.584;23.366;2023-05-27T15:09:08;21.10;54.84
66594;DHT22;53450;42.584;23.366;2023-05-27T15:11:43;21.07;53.63
66594;DHT22;53450;42.584;23.366;2023-05-27T15:14:08;21.10;53.64
66594;DHT22;53450;42.584;23.366;2023-05-27T15:16:34;21.26;54.34
66594;DHT22;53450;42.584;23.366;2023-05-27T15:19:25;21.30;51.67
66594;DHT22;53450;42.584;23.366;2023-05-27T15:21:51;21.26;52.79
66594;DHT22;53450;42.584;23.366;2023-05-27T15:24:16;21.19;52.93
66594;DHT22;53450;42.584;23.366;2023-05-27T15:26:42;21.23;52.79
66594;DHT22;53450;42.584;23.366;2023-05-27T15:29:08;21.23;51.32
66594;DHT22;53450;42.584;23.366;2023-05-27T15:31:34;21.21;50.55
66594;DHT22;53450;42.584;23.366;2023-05-27T15:34:00;21.34;51.44
66594;DHT22;53450;42.584;23.366;2023-05-27T15:36:26;21.42;50.76